sensor_id;sensor_type;location;lat;lon;timestamp;temperature;humidity
12477;DHT22;6303;51.504;6.300;2022-09-27T00:00:35;22.60;56.00
12477;DHT22;6303;51.504;6.300;2022-09-27T00:03:02;22.60;56.00
12477;DHT22;6303;51.504;6.300;2022-09-27T00:05:29;22.60;56.00
12477;DHT22;6303;51.504;6.300;2022-09-27T00:07:56;22.60;56.00
12477;DHT22;6303;51.504;6.300;2022-09-27T00:10:24;22.60;56.00
12477;DHT22;6303;51.504;6.300;2022-09-27T00:12:51;22.60;55.90
12477;DHT22;6303;51.504;6.300;2022-09-27T00:15:20;22.60;55.90
12477;DHT22;6303;51.504;6.300;2022-09-27T00:17:47;22.60;55.90
12477;DHT22;6303;51.504;6.300;2022-09-27T00:20:17;22.60;55.90
12477;DHT22;6303;51.504;6.300;2022-09-27T00:22:45;22.60;55.90
12477;DHT22;6303;51.504;6.300;2022-09-27T00:25:13;22.60;56.00
12477;DHT22;6303;51.504;6.300;2022-09-27T00:27:40;22.60;56.00
12477;DHT22;6303;51.504;6.300;2022-09-27T00:30:08;22.60;56.00
12477;DHT22;6303;51.504;6.300;2022-09-27T00:32:36;22.60;56.00
12477;DHT22;6303;51.504;6.300;2022-09-27T00:35:04;22.60;56.00
12477;DHT22;6303;51.504;6.300;2022-09-27T00:37:31;22.60;55.90
12477;DHT22;6303;51.504;6.300;2022-09-27T00:39:59;22.60;55.90
12477;DHT22;6303;51.504;6.300;2022-09-27T00:42:26;22.60;55.90
12477;DHT22;6303;51.504;6.300;2022-09-27T00:45:00;22.60;55.80
12477;DHT22;6303;51.504;6.300;2022-09-27T00:47:31;22.70;55.90
12477;DHT22;6303;51.504;6.300;2022-09-27T00:50:04;22.60;55.80
12477;DHT22;6303;51.504;6.300;2022-09-27T00:52:39;22.60;55.90
12477;DHT22;6303;51.504;6.300;2022-09-27T00:55:13;22.60;55.90
12477;DHT22;6303;51.504;6.300;2022-09-27T00:57:43;22.60;55.90
12477;DHT22;6303;51.504;6.300;2022-09-27T01:00:12;22.60;55.90
12477;DHT22;6303;51.504;6.300;2022-09-27T01:02:43;22.60;55.90
12477;DHT22;6303;51.504;6.300;2022-09-27T01:05:13;22.60;55.80
12477;DHT22;6303;51.504;6.300;2022-09-27T01:07:40;22.60;55.90
12477;DHT22;6303;51.504;6.300;2022-09-27T01:10:08;22.60;55.90
12477;DHT22;6303;51.504;6.300;2022-09-27T01:12:44;22.60;56.50
12477;DHT22;6303;51.504;6.300;2022-09-27T01:15:20;22.60;55.90
12477;DHT22;6303;51.504;6.300;2022-09-27T01:17:59;22.60;55.90
12477;DHT22;6303;51.504;6.300;2022-09-27T01:20:49;22.60;55.90
12477;DHT22;6303;51.504;6.300;2022-09-27T01:23:44;22.60;55.90
12477;DHT22;6303;51.504;6.300;2022-09-27T01:26:25;22.60;55.90
12477;DHT22;6303;51.504;6.300;2022-09-27T01:29:03;22.60;55.80
12477;DHT22;6303;51.504;6.300;2022-09-27T01:31:39;22.60;55.80
12477;DHT22;6303;51.504;6.300;2022-09-27T01:34:17;22.60;55.80
12477;DHT22;6303;51.504;6.300;2022-09-27T01:36:52;22.60;55.90
12477;DHT22;6303;51.504;6.300;2022-09-27T01:39:30;22.50;55.80
12477;DHT22;6303;51.504;6.300;2022-09-27T01:42:21;22.50;55.90
12477;DHT22;6303;51.504;6.300;2022-09-27T01:44:58;22.60;55.90
12477;DHT22;6303;51.504;6.300;2022-09-27T01:47:42;22.50;55.80
12477;DHT22;6303;51.504;6.300;2022-09-27T01:50:34;22.50;55.80
12477;DHT22;6303;51.504;6.300;2022-09-27T01:53:05;22.50;55.90
12477;DHT22;6303;51.504;6.300;2022-09-27T01:55:48;22.50;55.80
12477;DHT22;6303;51.504;6.300;2022-09-27T01:58:48;22.50;55.80
12477;DHT22;6303;51.504;6.300;2022-09-27T02:01:18;22.50;55.80
12477;DHT22;6303;51.504;6.300;2022-09-27T02:03:50;22.50;55.90
12477;DHT22;6303;51.504;6.300;2022-09-27T02:06:42;22.50;55.80
12477;DHT22;6303;51.504;6.300;2022-09-27T02:09:23;22.50;56.10
12477;DHT22;6303;51.504;6.300;2022-09-27T02:12:10;22.50;55.80
12477;DHT22;6303;51.504;6.300;2022-09-27T02:14:45;22.50;55.80
12477;DHT22;6303;51.504;6.300;2022-09-27T02:17:22;22.50;55.80
12477;DHT22;6303;51.504;6.300;2022-09-27T02:20:00;22.50;56.40
12477;DHT22;6303;51.504;6.300;2022-09-27T02:22:43;22.50;55.80
12477;DHT22;6303;51.504;6.300;2022-09-27T02:25:15;22.50;55.80
12477;DHT22;6303;51.504;6.300;2022-09-27T02:27:52;22.50;55.80
12477;DHT22;6303;51.504;6.300;2022-09-27T02:30:20;22.50;55.90
12477;DHT22;6303;51.504;6.300;2022-09-27T02:32:54;22.50;55.90
12477;DHT22;6303;51.504;6.300;2022-09-27T02:35:28;22.50;55.90
12477;DHT22;6303;51.504;6.300;2022-09-27T02:37:57;22.50;55.90
12477;DHT22;6303;51.504;6.300;2022-09-27T02:40:29;22.50;55.90
12477;DHT22;6303;51.504;6.300;2022-09-27T02:42:59;22.40;56.40
12477;DHT22;6303;51.504;6.300;2022-09-27T02:45:30;22.50;55.90
12477;DHT22;6303;51.504;6.300;2022-09-27T02:48:10;22.50;55.90
12477;DHT22;6303;51.504;6.300;2022-09-27T02:53:55;23.80;56.50
12477;DHT22;6303;51.504;6.300;2022-09-27T02:56:53;22.40;55.90
12477;DHT22;6303;51.504;6.300;2022-09-27T02:59:47;22.40;55.90
12477;DHT22;6303;51.504;6.300;2022-09-27T03:02:33;22.40;55.90
12477;DHT22;6303;51.504;6.300;2022-09-27T03:05:26;22.40;55.90
12477;DHT22;6303;51.504;6.300;2022-09-27T03:07:56;22.40;55.90
12477;DHT22;6303;51.504;6.300;2022-09-27T03:10:26;22.40;55.90
12477;DHT22;6303;51.504;6.300;2022-09-27T03:12:54;22.40;55.90
12477;DHT22;6303;51.504;6.300;2022-09-27T03:15:21;22.40;55.90
12477;DHT22;6303;51.504;6.300;2022-09-27T03:18:11;22.40;55.90
12477;DHT22;6303;51.504;6.300;2022-09-27T03:20:41;22.40;55.90
12477;DHT22;6303;51.504;6.300;2022-09-27T03:23:16;22.40;55.90
12477;DHT22;6303;51.504;6.300;2022-09-27T03:25:43;22.40;55.90
12477;DHT22;6303;51.504;6.300;2022-09-27T03:28:11;22.40;55.80
12477;DHT22;6303;51.504;6.300;2022-09-27T03:30:40;22.40;55.90
12477;DHT22;6303;51.504;6.300;2022-09-27T03:33:08;22.40;55.90
12477;DHT22;6303;51.504;6.300;2022-09-27T03:35:49;22.40;55.80
12477;DHT22;6303;51.504;6.300;2022-09-27T03:38:17;22.40;55.90
12477;DHT22;6303;51.504;6.300;2022-09-27T03:40:45;22.30;55.90
12477;DHT22;6303;51.504;6.300;2022-09-27T03:43:13;22.30;55.90
12477;DHT22;6303;51.504;6.300;2022-09-27T03:45:42;22.30;55.90
12477;DHT22;6303;51.504;6.300;2022-09-27T03:48:10;22.30;55.80
12477;DHT22;6303;51.504;6.300;2022-09-27T03:50:37;22.30;55.90
12477;DHT22;6303;51.504;6.300;2022-09-27T03:53:04;22.30;55.80
12477;DHT22;6303;51.504;6.300;2022-09-27T03:55:33;22.30;55.80
12477;DHT22;6303;51.504;6.300;2022-09-27T03:58:00;22.30;55.80
12477;DHT22;6303;51.504;6.300;2022-09-27T04:00:28;22.30;55.90
12477;DHT22;6303;51.504;6.300;2022-09-27T04:02:58;22.30;55.90
12477;DHT22;6303;51.504;6.300;2022-09-27T04:05:26;24.60;57.10
12477;DHT22;6303;51.504;6.300;2022-09-27T04:08:10;22.30;56.00
12477;DHT22;6303;51.504;6.300;2022-09-27T04:10:41;22.30;56.00
12477;DHT22;6303;51.504;6.300;2022-09-27T04:13:08;22.30;56.00
12477;DHT22;6303;51.504;6.300;2022-09-27T04:15:42;22.30;56.00
12477;DHT22;6303;51.504;6.300;2022-09-27T04:18:28;22.30;56.00
12477;DHT22;6303;51.504;6.300;2022-09-27T04:21:21;22.30;56.00
12477;DHT22;6303;51.504;6.300;2022-09-27T04:23:51;22.30;56.00
12477;DHT22;6303;51.504;6.300;2022-09-27T04:26:22;22.30;56.00
12477;DHT22;6303;51.504;6.300;2022-09-27T04:29:13;22.20;56.00
12477;DHT22;6303;51.504;6.300;2022-09-27T04:31:47;22.20;56.00
12477;DHT22;6303;51.504;6.300;2022-09-27T04:34:33;22.20;55.90
12477;DHT22;6303;51.504;6.300;2022-09-27T04:37:22;22.30;56.00
12477;DHT22;6303;51.504;6.300;2022-09-27T04:39:53;22.20;55.90
12477;DHT22;6303;51.504;6.300;2022-09-27T04:42:22;22.20;56.00
12477;DHT22;6303;51.504;6.300;2022-09-27T04:44:49;22.20;56.00
12477;DHT22;6303;51.504;6.300;2022-09-27T04:47:16;22.20;56.00
12477;DHT22;6303;51.504;6.300;2022-09-27T04:49:45;22.20;56.00
12477;DHT22;6303;51.504;6.300;2022-09-27T04:52:13;22.20;56.00
12477;DHT22;6303;51.504;6.300;2022-09-27T04:54:40;22.20;56.10
12477;DHT22;6303;51.504;6.300;2022-09-27T04:57:10;22.20;56.20
12477;DHT22;6303;51.504;6.300;2022-09-27T04:59:40;22.20;56.40
12477;DHT22;6303;51.504;6.300;2022-09-27T05:02:08;23.00;57.00
12477;DHT22;6303;51.504;6.300;2022-09-27T05:05:02;22.20;56.90
12477;DHT22;6303;51.504;6.300;2022-09-27T05:07:36;22.30;57.80
12477;DHT22;6303;51.504;6.300;2022-09-27T05:10:08;22.20;58.80
12477;DHT22;6303;51.504;6.300;2022-09-27T05:12:36;22.30;59.00
12477;DHT22;6303;51.504;6.300;2022-09-27T05:15:05;22.30;59.00
12477;DHT22;6303;51.504;6.300;2022-09-27T05:17:44;22.20;58.70
12477;DHT22;6303;51.504;6.300;2022-09-27T05:20:49;22.20;58.20
12477;DHT22;6303;51.504;6.300;2022-09-27T05:23:24;22.20;58.10
12477;DHT22;6303;51.504;6.300;2022-09-27T05:25:52;22.10;58.00
12477;DHT22;6303;51.504;6.300;2022-09-27T05:28:20;22.10;58.00
12477;DHT22;6303;51.504;6.300;2022-09-27T05:30:50;22.10;57.90
12477;DHT22;6303;51.504;6.300;2022-09-27T05:33:20;22.10;57.80
12477;DHT22;6303;51.504;6.300;2022-09-27T05:35:51;22.10;57.60
12477;DHT22;6303;51.504;6.300;2022-09-27T05:38:19;22.10;57.60
12477;DHT22;6303;51.504;6.300;2022-09-27T05:40:49;22.10;57.40
12477;DHT22;6303;51.504;6.300;2022-09-27T05:43:17;22.10;57.30
12477;DHT22;6303;51.504;6.300;2022-09-27T05:45:45;22.10;57.20
12477;DHT22;6303;51.504;6.300;2022-09-27T05:48:16;22.10;57.10
12477;DHT22;6303;51.504;6.300;2022-09-27T05:51:09;22.10;57.10
12477;DHT22;6303;51.504;6.300;2022-09-27T05:53:39;22.10;57.00
12477;DHT22;6303;51.504;6.300;2022-09-27T05:56:13;22.10;56.90
12477;DHT22;6303;51.504;6.300;2022-09-27T05:59:18;22.10;56.90
12477;DHT22;6303;51.504;6.300;2022-09-27T06:02:09;22.10;57.00
12477;DHT22;6303;51.504;6.300;2022-09-27T06:05:01;22.10;56.90
12477;DHT22;6303;51.504;6.300;2022-09-27T06:07:41;22.10;57.00
12477;DHT22;6303;51.504;6.300;2022-09-27T06:10:31;24.30;58.00
12477;DHT22;6303;51.504;6.300;2022-09-27T06:13:01;22.10;57.00
12477;DHT22;6303;51.504;6.300;2022-09-27T06:15:39;22.10;57.30
12477;DHT22;6303;51.504;6.300;2022-09-27T06:18:08;22.10;57.30
12477;DHT22;6303;51.504;6.300;2022-09-27T06:20:38;22.10;57.40
12477;DHT22;6303;51.504;6.300;2022-09-27T06:23:08;22.10;57.30
12477;DHT22;6303;51.504;6.300;2022-09-27T06:25:37;22.10;57.50
12477;DHT22;6303;51.504;6.300;2022-09-27T06:28:27;22.10;57.50
12477;DHT22;6303;51.504;6.300;2022-09-27T06:30:56;22.10;57.50
12477;DHT22;6303;51.504;6.300;2022-09-27T06:33:43;22.10;57.30
12477;DHT22;6303;51.504;6.300;2022-09-27T06:36:12;22.10;57.30
12477;DHT22;6303;51.504;6.300;2022-09-27T06:38:40;22.10;57.20
12477;DHT22;6303;51.504;6.300;2022-09-27T06:41:13;22.10;57.00
12477;DHT22;6303;51.504;6.300;2022-09-27T06:43:52;22.10;57.00
12477;DHT22;6303;51.504;6.300;2022-09-27T06:46:31;22.10;56.80
12477;DHT22;6303;51.504;6.300;2022-09-27T06:49:20;22.00;57.20
12477;DHT22;6303;51.504;6.300;2022-09-27T06:51:49;22.10;56.60
12477;DHT22;6303;51.504;6.300;2022-09-27T06:54:17;22.10;56.50
12477;DHT22;6303;51.504;6.300;2022-09-27T06:56:46;22.10;56.50
12477;DHT22;6303;51.504;6.300;2022-09-27T06:59:13;22.10;56.40
12477;DHT22;6303;51.504;6.300;2022-09-27T07:02:16;22.00;56.40
12477;DHT22;6303;51.504;6.300;2022-09-27T07:05:16;22.00;56.30
12477;DHT22;6303;51.504;6.300;2022-09-27T07:08:03;22.00;56.20
12477;DHT22;6303;51.504;6.300;2022-09-27T07:10:33;22.00;56.10
12477;DHT22;6303;51.504;6.300;2022-09-27T07:13:03;22.10;56.00
12477;DHT22;6303;51.504;6.300;2022-09-27T07:15:32;22.10;56.00
12477;DHT22;6303;51.504;6.300;2022-09-27T07:18:01;22.10;55.90
12477;DHT22;6303;51.504;6.300;2022-09-27T07:20:28;22.10;55.90
12477;DHT22;6303;51.504;6.300;2022-09-27T07:22:57;22.10;55.80
12477;DHT22;6303;51.504;6.300;2022-09-27T07:25:26;22.10;55.60
12477;DHT22;6303;51.504;6.300;2022-09-27T07:27:53;22.20;55.60
12477;DHT22;6303;51.504;6.300;2022-09-27T07:30:20;22.20;55.60
12477;DHT22;6303;51.504;6.300;2022-09-27T07:32:48;22.20;55.60
12477;DHT22;6303;51.504;6.300;2022-09-27T07:35:16;22.20;55.60
12477;DHT22;6303;51.504;6.300;2022-09-27T07:37:43;22.20;55.30
12477;DHT22;6303;51.504;6.300;2022-09-27T07:40:11;22.30;54.90
12477;DHT22;6303;51.504;6.300;2022-09-27T07:42:40;22.30;54.40
12477;DHT22;6303;51.504;6.300;2022-09-27T07:45:08;22.30;54.00
12477;DHT22;6303;51.504;6.300;2022-09-27T07:47:54;22.30;53.70
12477;DHT22;6303;51.504;6.300;2022-09-27T07:50:37;22.30;53.40
12477;DHT22;6303;51.504;6.300;2022-09-27T07:53:33;22.30;53.30
12477;DHT22;6303;51.504;6.300;2022-09-27T07:56:38;22.30;53.10
12477;DHT22;6303;51.504;6.300;2022-09-27T07:59:08;22.30;53.00
12477;DHT22;6303;51.504;6.300;2022-09-27T08:01:35;22.30;52.90
12477;DHT22;6303;51.504;6.300;2022-09-27T08:04:03;22.30;52.80
12477;DHT22;6303;51.504;6.300;2022-09-27T08:06:30;22.30;52.80
12477;DHT22;6303;51.504;6.300;2022-09-27T08:08:57;22.30;52.70
12477;DHT22;6303;51.504;6.300;2022-09-27T08:11:27;22.20;52.70
12477;DHT22;6303;51.504;6.300;2022-09-27T08:13:54;22.20;52.60
12477;DHT22;6303;51.504;6.300;2022-09-27T08:16:28;22.20;52.70
12477;DHT22;6303;51.504;6.300;2022-09-27T08:19:24;22.20;52.60
12477;DHT22;6303;51.504;6.300;2022-09-27T08:22:11;22.20;52.70
12477;DHT22;6303;51.504;6.300;2022-09-27T08:25:01;22.20;52.70
12477;DHT22;6303;51.504;6.300;2022-09-27T08:27:37;22.20;52.70
12477;DHT22;6303;51.504;6.300;2022-09-27T08:30:17;22.20;52.70
12477;DHT22;6303;51.504;6.300;2022-09-27T08:32:46;22.20;52.80
12477;DHT22;6303;51.504;6.300;2022-09-27T08:35:13;22.20;52.80
12477;DHT22;6303;51.504;6.300;2022-09-27T08:37:41;22.20;52.80
12477;DHT22;6303;51.504;6.300;2022-09-27T08:40:12;22.20;52.80
12477;DHT22;6303;51.504;6.300;2022-09-27T08:42:47;22.20;52.90
12477;DHT22;6303;51.504;6.300;2022-09-27T08:45:21;22.20;52.90
12477;DHT22;6303;51.504;6.300;2022-09-27T08:47:54;22.20;52.90
12477;DHT22;6303;51.504;6.300;2022-09-27T08:50:26;22.20;52.90
12477;DHT22;6303;51.504;6.300;2022-09-27T08:52:57;22.20;53.00
12477;DHT22;6303;51.504;6.300;2022-09-27T08:55:31;22.20;53.00
12477;DHT22;6303;51.504;6.300;2022-09-27T08:58:11;22.20;53.00
12477;DHT22;6303;51.504;6.300;2022-09-27T09:00:39;22.20;53.00
12477;DHT22;6303;51.504;6.300;2022-09-27T09:03:16;22.20;52.90
12477;DHT22;6303;51.504;6.300;2022-09-27T09:05:51;22.20;53.00
12477;DHT22;6303;51.504;6.300;2022-09-27T09:08:30;22.20;53.10
12477;DHT22;6303;51.504;6.300;2022-09-27T09:11:07;22.20;53.10
12477;DHT22;6303;51.504;6.300;2022-09-27T09:17:01;22.20;53.20
12477;DHT22;6303;51.504;6.300;2022-09-27T09:19:50;22.10;53.30
12477;DHT22;6303;51.504;6.300;2022-09-27T09:22:45;22.10;53.40
12477;DHT22;6303;51.504;6.300;2022-09-27T09:25:22;22.10;53.40
12477;DHT22;6303;51.504;6.300;2022-09-27T09:27:58;22.20;53.40
12477;DHT22;6303;51.504;6.300;2022-09-27T09:30:33;22.10;53.50
12477;DHT22;6303;51.504;6.300;2022-09-27T09:33:18;22.10;53.60
12477;DHT22;6303;51.504;6.300;2022-09-27T09:35:51;22.10;53.70
12477;DHT22;6303;51.504;6.300;2022-09-27T09:38:26;22.20;53.70
12477;DHT22;6303;51.504;6.300;2022-09-27T09:40:57;22.10;53.80
12477;DHT22;6303;51.504;6.300;2022-09-27T09:43:31;22.10;53.80
12477;DHT22;6303;51.504;6.300;2022-09-27T09:46:06;22.20;53.80
12477;DHT22;6303;51.504;6.300;2022-09-27T09:48:38;22.20;53.90
12477;DHT22;6303;51.504;6.300;2022-09-27T09:51:14;22.20;54.00
12477;DHT22;6303;51.504;6.300;2022-09-27T09:53:49;22.20;54.10
12477;DHT22;6303;51.504;6.300;2022-09-27T09:56:24;22.20;54.10
12477;DHT22;6303;51.504;6.300;2022-09-27T09:58:55;22.20;54.10
12477;DHT22;6303;51.504;6.300;2022-09-27T10:01:33;22.20;54.00
12477;DHT22;6303;51.504;6.300;2022-09-27T10:04:03;22.20;54.60
12477;DHT22;6303;51.504;6.300;2022-09-27T10:06:32;22.20;53.90
12477;DHT22;6303;51.504;6.300;2022-09-27T10:09:01;22.20;53.70
12477;DHT22;6303;51.504;6.300;2022-09-27T10:11:40;22.20;53.50
12477;DHT22;6303;51.504;6.300;2022-09-27T10:14:34;22.20;53.40
12477;DHT22;6303;51.504;6.300;2022-09-27T10:17:08;22.20;53.50
12477;DHT22;6303;51.504;6.300;2022-09-27T10:19:37;22.20;53.50
12477;DHT22;6303;51.504;6.300;2022-09-27T10:22:13;22.10;53.70
12477;DHT22;6303;51.504;6.300;2022-09-27T10:24:54;22.10;53.70
12477;DHT22;6303;51.504;6.300;2022-09-27T10:27:43;22.20;54.30
12477;DHT22;6303;51.504;6.300;2022-09-27T10:30:25;22.20;53.70
12477;DHT22;6303;51.504;6.300;2022-09-27T10:32:56;22.20;53.60
12477;DHT22;6303;51.504;6.300;2022-09-27T10:35:41;22.20;53.50
12477;DHT22;6303;51.504;6.300;2022-09-27T10:38:24;22.20;53.50
12477;DHT22;6303;51.504;6.300;2022-09-27T10:41:14;22.20;53.50
12477;DHT22;6303;51.504;6.300;2022-09-27T10:43:43;22.20;53.50
12477;DHT22;6303;51.504;6.300;2022-09-27T10:46:26;22.30;53.50
12477;DHT22;6303;51.504;6.300;2022-09-27T10:49:09;22.30;53.40
12477;DHT22;6303;51.504;6.300;2022-09-27T10:51:39;22.30;53.40
12477;DHT22;6303;51.504;6.300;2022-09-27T10:54:18;22.30;53.80
12477;DHT22;6303;51.504;6.300;2022-09-27T10:56:54;22.30;53.40
12477;DHT22;6303;51.504;6.300;2022-09-27T10:59:22;22.30;53.30
12477;DHT22;6303;51.504;6.300;2022-09-27T11:01:50;22.30;53.30
12477;DHT22;6303;51.504;6.300;2022-09-27T11:04:34;22.30;53.30
12477;DHT22;6303;51.504;6.300;2022-09-27T11:07:12;22.30;53.30
12477;DHT22;6303;51.504;6.300;2022-09-27T11:09:47;22.40;53.40
12477;DHT22;6303;51.504;6.300;2022-09-27T11:12:16;22.40;53.40
12477;DHT22;6303;51.504;6.300;2022-09-27T11:14:52;22.30;53.40
12477;DHT22;6303;51.504;6.300;2022-09-27T11:17:25;22.40;53.60
12477;DHT22;6303;51.504;6.300;2022-09-27T11:20:19;22.40;53.40
12477;DHT22;6303;51.504;6.300;2022-09-27T11:23:14;22.40;53.40
12477;DHT22;6303;51.504;6.300;2022-09-27T11:25:59;22.40;53.40
12477;DHT22;6303;51.504;6.300;2022-09-27T11:28:36;22.40;53.40
12477;DHT22;6303;51.504;6.300;2022-09-27T11:31:19;22.40;53.40
12477;DHT22;6303;51.504;6.300;2022-09-27T11:34:12;22.30;53.40
12477;DHT22;6303;51.504;6.300;2022-09-27T11:36:56;22.30;53.40
12477;DHT22;6303;51.504;6.300;2022-09-27T11:39:35;22.30;53.50
12477;DHT22;6303;51.504;6.300;2022-09-27T11:42:21;22.30;53.60
12477;DHT22;6303;51.504;6.300;2022-09-27T11:44:56;22.30;53.50
12477;DHT22;6303;51.504;6.300;2022-09-27T11:47:35;22.30;53.60
12477;DHT22;6303;51.504;6.300;2022-09-27T11:50:40;22.30;53.50
12477;DHT22;6303;51.504;6.300;2022-09-27T11:53:20;22.30;53.50
12477;DHT22;6303;51.504;6.300;2022-09-27T11:55:58;24.20;54.60
12477;DHT22;6303;51.504;6.300;2022-09-27T11:58:36;22.30;53.70
12477;DHT22;6303;51.504;6.300;2022-09-27T12:01:16;22.30;53.70
12477;DHT22;6303;51.504;6.300;2022-09-27T12:06:54;22.30;53.70
12477;DHT22;6303;51.504;6.300;2022-09-27T12:09:29;22.30;53.70
12477;DHT22;6303;51.504;6.300;2022-09-27T12:12:02;22.40;53.70
12477;DHT22;6303;51.504;6.300;2022-09-27T12:14:36;22.40;53.50
12477;DHT22;6303;51.504;6.300;2022-09-27T12:17:09;22.50;53.50
12477;DHT22;6303;51.504;6.300;2022-09-27T12:19:42;22.50;53.30
12477;DHT22;6303;51.504;6.300;2022-09-27T12:22:19;22.50;53.20
12477;DHT22;6303;51.504;6.300;2022-09-27T12:24:49;22.60;53.20
12477;DHT22;6303;51.504;6.300;2022-09-27T12:27:39;22.50;53.10
12477;DHT22;6303;51.504;6.300;2022-09-27T12:30:13;22.60;53.80
12477;DHT22;6303;51.504;6.300;2022-09-27T12:32:50;22.60;53.20
12477;DHT22;6303;51.504;6.300;2022-09-27T12:35:21;22.60;53.30
12477;DHT22;6303;51.504;6.300;2022-09-27T12:37:54;22.60;53.20
12477;DHT22;6303;51.504;6.300;2022-09-27T12:40:28;22.60;53.10
12477;DHT22;6303;51.504;6.300;2022-09-27T12:43:01;22.60;53.10
12477;DHT22;6303;51.504;6.300;2022-09-27T12:45:52;22.60;53.10
12477;DHT22;6303;51.504;6.300;2022-09-27T12:48:28;22.60;53.10
12477;DHT22;6303;51.504;6.300;2022-09-27T12:51:04;23.50;53.50
12477;DHT22;6303;51.504;6.300;2022-09-27T12:53:48;22.70;53.10
12477;DHT22;6303;51.504;6.300;2022-09-27T12:56:31;22.70;53.00
12477;DHT22;6303;51.504;6.300;2022-09-27T12:59:19;22.70;53.00
12477;DHT22;6303;51.504;6.300;2022-09-27T13:05:16;22.70;52.90
12477;DHT22;6303;51.504;6.300;2022-09-27T13:08:08;22.70;52.90
12477;DHT22;6303;51.504;6.300;2022-09-27T13:10:48;22.80;52.90
12477;DHT22;6303;51.504;6.300;2022-09-27T13:13:27;23.80;53.50
12477;DHT22;6303;51.504;6.300;2022-09-27T13:15:58;22.70;52.90
12477;DHT22;6303;51.504;6.300;2022-09-27T13:18:31;22.70;52.90
12477;DHT22;6303;51.504;6.300;2022-09-27T13:24:47;22.70;52.90
12477;DHT22;6303;51.504;6.300;2022-09-27T13:27:40;22.70;52.90
12477;DHT22;6303;51.504;6.300;2022-09-27T13:30:44;22.80;53.00
12477;DHT22;6303;51.504;6.300;2022-09-27T13:33:40;22.50;53.00
12477;DHT22;6303;51.504;6.300;2022-09-27T13:36:19;22.80;53.20
12477;DHT22;6303;51.504;6.300;2022-09-27T13:39:12;22.80;53.20
12477;DHT22;6303;51.504;6.300;2022-09-27T13:42:26;22.80;53.20
12477;DHT22;6303;51.504;6.300;2022-09-27T13:45:12;22.80;53.30
12477;DHT22;6303;51.504;6.300;2022-09-27T13:47:48;22.80;53.30
12477;DHT22;6303;51.504;6.300;2022-09-27T13:50:25;22.80;53.30
12477;DHT22;6303;51.504;6.300;2022-09-27T13:53:07;22.80;53.30
12477;DHT22;6303;51.504;6.300;2022-09-27T13:55:43;22.80;53.30
12477;DHT22;6303;51.504;6.300;2022-09-27T13:58:50;22.80;53.30
12477;DHT22;6303;51.504;6.300;2022-09-27T14:01:57;22.80;53.40
12477;DHT22;6303;51.504;6.300;2022-09-27T14:04:35;22.80;53.40
12477;DHT22;6303;51.504;6.300;2022-09-27T14:07:03;22.80;53.40
12477;DHT22;6303;51.504;6.300;2022-09-27T14:09:33;22.80;53.40
12477;DHT22;6303;51.504;6.300;2022-09-27T14:12:18;22.80;54.00
12477;DHT22;6303;51.504;6.300;2022-09-27T14:14:50;22.80;54.00
12477;DHT22;6303;51.504;6.300;2022-09-27T14:17:18;22.80;54.00
12477;DHT22;6303;51.504;6.300;2022-09-27T14:19:46;22.80;53.40
12477;DHT22;6303;51.504;6.300;2022-09-27T14:22:16;22.80;53.40
12477;DHT22;6303;51.504;6.300;2022-09-27T14:24:58;22.80;53.40
12477;DHT22;6303;51.504;6.300;2022-09-27T14:27:37;22.80;53.40
12477;DHT22;6303;51.504;6.300;2022-09-27T14:30:35;22.80;53.40
12477;DHT22;6303;51.504;6.300;2022-09-27T14:33:28;22.80;53.30
12477;DHT22;6303;51.504;6.300;2022-09-27T14:36:01;22.80;53.40
12477;DHT22;6303;51.504;6.300;2022-09-27T14:38:47;22.80;53.40
12477;DHT22;6303;51.504;6.300;2022-09-27T14:41:22;22.80;53.40
12477;DHT22;6303;51.504;6.300;2022-09-27T14:43:50;22.70;53.40
12477;DHT22;6303;51.504;6.300;2022-09-27T14:46:27;22.80;53.40
12477;DHT22;6303;51.504;6.300;2022-09-27T14:48:54;22.80;53.40
12477;DHT22;6303;51.504;6.300;2022-09-27T14:51:27;22.80;53.50
12477;DHT22;6303;51.504;6.300;2022-09-27T14:53:55;22.80;53.40
12477;DHT22;6303;51.504;6.300;2022-09-27T14:56:27;22.80;53.40
12477;DHT22;6303;51.504;6.300;2022-09-27T14:59:00;22.80;53.40
12477;DHT22;6303;51.504;6.300;2022-09-27T15:01:29;22.80;53.40
12477;DHT22;6303;51.504;6.300;2022-09-27T15:04:04;22.80;53.40
12477;DHT22;6303;51.504;6.300;2022-09-27T15:06:32;22.80;53.40
12477;DHT22;6303;51.504;6.300;2022-09-27T15:09:02;22.80;53.40
12477;DHT22;6303;51.504;6.300;2022-09-27T15:11:31;22.80;53.40
12477;DHT22;6303;51.504;6.300;2022-09-27T15:14:00;25.20;54.50
12477;DHT22;6303;51.504;6.300;2022-09-27T15:16:29;22.70;53.30
12477;DHT22;6303;51.504;6.300;2022-09-27T15:19:01;22.70;53.40
12477;DHT22;6303;51.504;6.300;2022-09-27T15:21:30;22.70;53.40
12477;DHT22;6303;51.504;6.300;2022-09-27T15:23:57;22.70;53.40
12477;DHT22;6303;51.504;6.300;2022-09-27T15:26:32;22.70;53.40
12477;DHT22;6303;51.504;6.300;2022-09-27T15:29:00;22.70;53.40
12477;DHT22;6303;51.504;6.300;2022-09-27T15:31:31;22.70;53.50
12477;DHT22;6303;51.504;6.300;2022-09-27T15:33:59;22.60;53.50
12477;DHT22;6303;51.504;6.300;2022-09-27T15:36:50;22.60;53.50
12477;DHT22;6303;51.504;6.300;2022-09-27T15:39:20;22.60;53.50
12477;DHT22;6303;51.504;6.300;2022-09-27T15:42:07;22.60;53.60
12477;DHT22;6303;51.504;6.300;2022-09-27T15:44:43;22.50;53.60
12477;DHT22;6303;51.504;6.300;2022-09-27T15:50:34;22.50;53.80
12477;DHT22;6303;51.504;6.300;2022-09-27T15:53:02;22.40;53.70
12477;DHT22;6303;51.504;6.300;2022-09-27T15:55:33;22.50;53.80
12477;DHT22;6303;51.504;6.300;2022-09-27T15:58:03;22.50;53.80
12477;DHT22;6303;51.504;6.300;2022-09-27T16:00:33;22.50;53.80
12477;DHT22;6303;51.504;6.300;2022-09-27T16:03:01;22.40;53.80
12477;DHT22;6303;51.504;6.300;2022-09-27T16:05:28;22.40;53.80
12477;DHT22;6303;51.504;6.300;2022-09-27T16:07:59;24.00;54.60
12477;DHT22;6303;51.504;6.300;2022-09-27T16:10:31;22.40;53.90
12477;DHT22;6303;51.504;6.300;2022-09-27T16:13:01;23.90;54.70
12477;DHT22;6303;51.504;6.300;2022-09-27T16:15:28;22.40;54.00
12477;DHT22;6303;51.504;6.300;2022-09-27T16:17:56;22.40;54.00
12477;DHT22;6303;51.504;6.300;2022-09-27T16:20:25;22.40;54.10
12477;DHT22;6303;51.504;6.300;2022-09-27T16:22:53;22.40;54.10
12477;DHT22;6303;51.504;6.300;2022-09-27T16:25:22;22.40;54.20
12477;DHT22;6303;51.504;6.300;2022-09-27T16:27:50;22.30;54.20
12477;DHT22;6303;51.504;6.300;2022-09-27T16:30:18;22.30;54.30
12477;DHT22;6303;51.504;6.300;2022-09-27T16:32:47;22.30;54.20
12477;DHT22;6303;51.504;6.300;2022-09-27T16:35:15;22.30;54.20
12477;DHT22;6303;51.504;6.300;2022-09-27T16:37:43;22.30;54.30
12477;DHT22;6303;51.504;6.300;2022-09-27T16:40:11;22.30;54.30
12477;DHT22;6303;51.504;6.300;2022-09-27T16:42:41;22.30;54.40
12477;DHT22;6303;51.504;6.300;2022-09-27T16:45:09;22.30;54.30
12477;DHT22;6303;51.504;6.300;2022-09-27T16:47:36;22.30;54.30
12477;DHT22;6303;51.504;6.300;2022-09-27T16:50:04;24.80;55.50
12477;DHT22;6303;51.504;6.300;2022-09-27T16:52:57;22.30;54.30
12477;DHT22;6303;51.504;6.300;2022-09-27T16:55:25;22.30;54.40
12477;DHT22;6303;51.504;6.300;2022-09-27T16:57:56;22.30;54.40